createdAt,value
2023-05-21T00:02:17.463Z,15.42
2023-05-21T00:04:49.077Z,15.39
2023-05-21T00:07:21.028Z,15.35
2023-05-21T00:09:53.029Z,15.33
2023-05-21T00:12:24.573Z,15.32
2023-05-21T00:14:56.180Z,15.25
2023-05-21T00:17:28.643Z,15.21
2023-05-21T00:20:02.277Z,15.21
2023-05-21T00:22:33.857Z,15.22
2023-05-21T00:25:06.378Z,15.22
2023-05-21T00:27:38.253Z,15.21
2023-05-21T00:30:10.038Z,15.23
2023-05-21T00:32:41.727Z,15.21
2023-05-21T00:35:13.888Z,15.19
2023-05-21T00:37:45.432Z,15.16
2023-05-21T00:40:18.930Z,15.09
2023-05-21T00:42:50.470Z,15.06
2023-05-21T00:45:24.081Z,15.06
2023-05-21T00:47:55.887Z,15.05
2023-05-21T00:50:27.786Z,15.01
2023-05-21T00:52:59.882Z,14.92
2023-05-21T00:55:31.475Z,14.88
2023-05-21T00:58:04.551Z,14.85
2023-05-21T01:00:37.473Z,14.81
2023-05-21T01:03:11.002Z,14.79
2023-05-21T01:05:45.150Z,14.75
2023-05-21T01:08:17.965Z,14.73
2023-05-21T01:10:50.246Z,14.68
2023-05-21T01:13:23.849Z,14.69
2023-05-21T01:15:55.681Z,14.68
2023-05-21T01:18:27.197Z,14.67
2023-05-21T01:20:58.729Z,14.61
2023-05-21T01:23:30.251Z,14.56
2023-05-21T01:26:01.629Z,14.55
2023-05-21T01:28:34.513Z,14.56
2023-05-21T01:31:14.307Z,14.58
2023-05-21T01:33:48.955Z,14.59
2023-05-21T01:36:27.272Z,14.55
2023-05-21T01:39:04.656Z,14.52
2023-05-21T01:41:38.390Z,14.50
2023-05-21T01:44:10.839Z,14.49
2023-05-21T01:46:42.285Z,14.47
2023-05-21T01:49:14.469Z,14.37
2023-05-21T01:51:46.184Z,14.38
2023-05-21T01:54:17.555Z,14.39
2023-05-21T01:56:49.749Z,14.38
2023-05-21T01:59:21.138Z,14.36
2023-05-21T02:01:52.587Z,14.39
2023-05-21T02:04:23.976Z,14.38
2023-05-21T02:06:55.629Z,14.35
2023-05-21T02:09:26.979Z,14.33
2023-05-21T02:11:58.331Z,14.30
2023-05-21T02:14:29.854Z,14.26
2023-05-21T02:17:01.274Z,14.23
2023-05-21T02:19:32.718Z,14.23
2023-05-21T02:22:04.209Z,14.16
2023-05-21T02:24:35.636Z,14.13
2023-05-21T02:27:07.156Z,14.09
2023-05-21T02:29:38.551Z,14.06
2023-05-21T02:32:10.081Z,14.01
2023-05-21T02:34:42.904Z,14.00
2023-05-21T02:37:14.285Z,14.00
2023-05-21T02:39:45.878Z,13.97
2023-05-21T02:42:17.245Z,14.01
2023-05-21T02:44:48.852Z,13.90
2023-05-21T02:47:20.537Z,13.85
2023-05-21T02:49:52.329Z,13.85
2023-05-21T02:52:24.003Z,13.82
2023-05-21T02:54:55.528Z,13.82
2023-05-21T02:57:26.933Z,13.79
2023-05-21T02:59:58.268Z,13.77
2023-05-21T03:02:30.281Z,13.78
2023-05-21T03:05:01.838Z,13.82
2023-05-21T03:07:33.272Z,13.84
2023-05-21T03:10:05.193Z,13.85
2023-05-21T03:12:36.573Z,13.85
2023-05-21T03:15:08.228Z,13.83
2023-05-21T03:17:39.671Z,13.81
2023-05-21T03:20:16.569Z,13.75
2023-05-21T03:22:48.273Z,13.72
2023-05-21T03:25:19.836Z,13.67
2023-05-21T03:27:52.146Z,13.61
2023-05-21T03:30:23.501Z,13.59
2023-05-21T03:32:56.343Z,13.56
2023-05-21T03:35:27.847Z,13.52
2023-05-21T03:37:59.236Z,13.41
2023-05-21T03:40:30.698Z,13.34
2023-05-21T03:43:02.129Z,13.31
2023-05-21T03:45:33.703Z,13.29
2023-05-21T03:48:05.306Z,13.27
2023-05-21T03:50:36.707Z,13.22
2023-05-21T03:53:10.747Z,13.21
2023-05-21T03:55:42.132Z,13.25
2023-05-21T03:58:13.563Z,13.24
2023-05-21T04:00:45.458Z,13.29
2023-05-21T04:03:18.120Z,13.31
2023-05-21T04:05:49.656Z,13.39
2023-05-21T04:08:21.301Z,13.40
2023-05-21T04:10:52.697Z,13.44
2023-05-21T04:13:24.079Z,13.43
2023-05-21T04:15:58.236Z,13.44
2023-05-21T04:18:29.672Z,13.46
2023-05-21T04:21:01.787Z,13.47
2023-05-21T04:23:33.654Z,13.46
2023-05-21T04:26:05.059Z,13.54
2023-05-21T04:28:36.416Z,13.54
2023-05-21T04:31:08.657Z,13.62
2023-05-21T04:33:42.130Z,13.69
2023-05-21T04:36:13.615Z,13.74
2023-05-21T04:38:45.011Z,13.76
2023-05-21T04:41:18.908Z,13.81
2023-05-21T04:43:55.043Z,13.86
2023-05-21T04:46:26.897Z,13.91
2023-05-21T04:49:03.038Z,13.97
2023-05-21T04:51:37.769Z,13.99
2023-05-21T04:54:09.152Z,14.07
2023-05-21T04:56:40.565Z,14.09
2023-05-21T04:59:11.948Z,14.13
2023-05-21T05:01:43.921Z,14.18
2023-05-21T05:04:15.520Z,14.24
2023-05-21T05:06:47.330Z,14.29
2023-05-21T05:09:19.243Z,14.24
2023-05-21T05:11:51.078Z,14.31
2023-05-21T05:14:22.458Z,14.38
2023-05-21T05:16:54.203Z,14.45
2023-05-21T05:19:26.010Z,14.52
2023-05-21T05:21:57.431Z,14.49
2023-05-21T05:24:28.797Z,14.52
2023-05-21T05:27:00.229Z,14.54
2023-05-21T05:29:31.630Z,14.68
2023-05-21T05:32:03.026Z,14.79
2023-05-21T05:34:34.416Z,14.89
2023-05-21T05:37:05.806Z,14.96
2023-05-21T05:39:37.159Z,15.09
2023-05-21T05:42:08.613Z,15.19
2023-05-21T05:44:40.005Z,15.27
2023-05-21T05:47:11.420Z,15.37
2023-05-21T05:49:42.792Z,15.47
2023-05-21T05:52:14.312Z,15.54
2023-05-21T05:54:45.918Z,15.61
2023-05-21T05:57:17.347Z,15.72
2023-05-21T05:59:48.708Z,15.75
2023-05-21T06:02:20.135Z,15.66
2023-05-21T06:04:51.899Z,15.78
2023-05-21T06:07:23.287Z,15.83
2023-05-21T06:09:54.744Z,15.87
2023-05-21T06:12:26.265Z,15.90
2023-05-21T06:14:57.628Z,15.90
2023-05-21T06:17:29.082Z,15.98
2023-05-21T06:20:00.566Z,16.07
2023-05-21T06:22:32.042Z,16.13
2023-05-21T06:25:03.652Z,16.13
2023-05-21T06:27:35.169Z,16.23
2023-05-21T06:30:07.286Z,16.30
2023-05-21T06:32:39.048Z,16.28
2023-05-21T06:35:10.534Z,16.42
2023-05-21T06:37:43.048Z,16.58
2023-05-21T06:40:14.515Z,16.72
2023-05-21T06:42:45.869Z,16.84
2023-05-21T06:45:17.238Z,16.95
2023-05-21T06:47:49.652Z,17.06
2023-05-21T06:50:21.039Z,17.13
2023-05-21T06:52:52.434Z,17.15
2023-05-21T06:55:23.814Z,17.26
2023-05-21T06:57:56.383Z,17.25
2023-05-21T07:00:27.851Z,17.41
2023-05-21T07:02:59.474Z,17.37
2023-05-21T07:05:31.299Z,17.64
2023-05-21T07:08:02.868Z,17.81
2023-05-21T07:10:34.401Z,18.00
2023-05-21T07:13:06.017Z,18.04
2023-05-21T07:15:37.919Z,18.19
2023-05-21T07:18:09.707Z,18.34
2023-05-21T07:20:41.344Z,18.53
2023-05-21T07:23:12.941Z,18.63
2023-05-21T07:25:44.486Z,18.82
2023-05-21T07:28:16.036Z,18.91
2023-05-21T07:30:47.670Z,19.04
2023-05-21T07:33:20.719Z,19.15
2023-05-21T07:35:52.448Z,19.30
2023-05-21T07:38:24.011Z,19.23
2023-05-21T07:40:56.809Z,19.24
2023-05-21T07:43:28.580Z,19.38
2023-05-21T07:46:00.313Z,19.43
2023-05-21T07:48:33.600Z,19.61
2023-05-21T07:51:07.255Z,19.71
2023-05-21T07:53:38.884Z,19.85
2023-05-21T07:56:10.785Z,19.83
2023-05-21T07:58:44.387Z,20.01
2023-05-21T08:01:16.003Z,19.79
2023-05-21T08:03:47.811Z,19.87
2023-05-21T08:06:19.586Z,20.08
2023-05-21T08:08:51.177Z,20.24
2023-05-21T08:11:23.396Z,20.28
2023-05-21T08:13:55.568Z,20.26
2023-05-21T08:16:27.202Z,20.25
2023-05-21T08:18:58.913Z,20.23
2023-05-21T08:21:30.857Z,20.15
2023-05-21T08:24:03.003Z,20.25
2023-05-21T08:26:34.606Z,20.28
2023-05-21T08:29:06.512Z,20.34
2023-05-21T08:31:40.296Z,20.42
2023-05-21T08:34:11.884Z,20.54
2023-05-21T08:36:46.008Z,20.61
2023-05-21T08:39:17.585Z,20.59
2023-05-21T08:41:53.816Z,20.62
2023-05-21T08:44:27.314Z,20.70
2023-05-21T08:46:59.565Z,20.76
2023-05-21T08:49:34.596Z,20.77
2023-05-21T08:52:06.882Z,20.71
2023-05-21T08:54:39.781Z,20.67
2023-05-21T08:57:12.500Z,20.66
2023-05-21T08:59:45.093Z,20.70
2023-05-21T09:02:18.297Z,20.74
2023-05-21T09:04:50.187Z,20.74
2023-05-21T09:07:22.818Z,20.65
2023-05-21T09:09:57.450Z,20.69
2023-05-21T09:12:29.067Z,20.83
2023-05-21T09:15:01.654Z,20.90
2023-05-21T09:17:33.341Z,20.82
2023-05-21T09:20:12.138Z,20.81
2023-05-21T09:22:45.871Z,20.98
2023-05-21T09:25:22.987Z,21.10
2023-05-21T09:27:58.294Z,21.14
2023-05-21T09:30:31.834Z,21.23
2023-05-21T09:33:05.017Z,21.44
2023-05-21T09:35:38.263Z,21.65
2023-05-21T09:38:09.867Z,21.86
2023-05-21T09:40:46.317Z,22.08
2023-05-21T09:43:18.133Z,22.26
2023-05-21T09:45:58.331Z,22.29
2023-05-21T09:48:40.866Z,22.59
2023-05-21T09:51:19.176Z,22.78
2023-05-21T09:53:53.777Z,22.86
2023-05-21T09:56:31.902Z,22.88
2023-05-21T09:59:06.736Z,23.10
2023-05-21T10:01:38.774Z,23.28
2023-05-21T10:04:10.518Z,23.46
2023-05-21T10:06:47.824Z,23.59
2023-05-21T10:09:20.694Z,23.84
2023-05-21T10:11:54.508Z,24.01
2023-05-21T10:14:30.652Z,24.21
2023-05-21T10:17:02.741Z,24.32
2023-05-21T10:19:36.433Z,24.25
2023-05-21T10:22:08.822Z,24.28
2023-05-21T10:24:41.546Z,24.44
2023-05-21T10:27:13.996Z,24.55
2023-05-21T10:29:46.039Z,24.58
2023-05-21T10:32:18.397Z,24.43
2023-05-21T10:34:52.271Z,24.55
2023-05-21T10:37:26.613Z,24.46
2023-05-21T10:39:58.227Z,24.50
2023-05-21T10:42:29.696Z,24.71
2023-05-21T10:45:32.594Z,24.57
2023-05-21T10:48:31.674Z,24.82
2023-05-21T10:51:26.442Z,25.17
2023-05-21T10:54:19.043Z,25.52
2023-05-21T10:57:02.726Z,25.95
2023-05-21T10:59:43.293Z,26.17
2023-05-21T11:02:16.616Z,26.35
2023-05-21T11:04:49.172Z,26.63
2023-05-21T11:07:26.497Z,26.54
2023-05-21T11:10:32.221Z,26.64
2023-05-21T11:13:16.748Z,26.94
2023-05-21T11:16:01.691Z,27.07
2023-05-21T11:18:36.737Z,27.19
2023-05-21T11:21:15.525Z,26.83
2023-05-21T11:23:53.040Z,27.12
2023-05-21T11:26:27.109Z,27.22
2023-05-21T11:29:04.693Z,27.19
2023-05-21T11:31:40.037Z,27.21
2023-05-21T11:34:28.482Z,27.04
2023-05-21T11:37:18.765Z,26.93
2023-05-21T11:39:51.281Z,27.01
2023-05-21T11:42:33.864Z,26.63
2023-05-21T11:45:06.063Z,26.63
2023-05-21T11:47:37.734Z,26.55
2023-05-21T11:50:12.519Z,26.65
2023-05-21T11:52:45.298Z,26.75
2023-05-21T11:55:22.264Z,26.99
2023-05-21T11:57:55.183Z,26.87
2023-05-21T12:00:27.385Z,26.88
2023-05-21T12:02:59.330Z,27.15
2023-05-21T12:05:31.068Z,27.26
2023-05-21T12:08:02.542Z,27.44
2023-05-21T12:10:34.201Z,27.65
2023-05-21T12:13:06.692Z,27.76
2023-05-21T12:15:38.238Z,27.84
2023-05-21T12:18:09.873Z,28.03
2023-05-21T12:20:41.264Z,28.29
2023-05-21T12:23:25.339Z,28.55
2023-05-21T12:25:57.400Z,28.55
2023-05-21T12:28:29.729Z,28.74
2023-05-21T12:31:01.344Z,28.92
2023-05-21T12:33:35.804Z,28.90
2023-05-21T12:36:07.369Z,28.97
2023-05-21T12:38:39.152Z,29.08
2023-05-21T12:41:10.995Z,29.36
2023-05-21T12:43:42.563Z,29.29
2023-05-21T12:46:14.874Z,29.46
2023-05-21T12:48:53.335Z,29.71
2023-05-21T12:51:24.900Z,29.84
2023-05-21T12:53:56.405Z,29.81
2023-05-21T12:56:28.081Z,29.64
2023-05-21T12:58:59.599Z,29.89
2023-05-21T13:01:31.324Z,30.16
2023-05-21T13:04:05.077Z,30.27
2023-05-21T13:06:43.729Z,30.34
2023-05-21T13:09:15.642Z,30.40
2023-05-21T13:11:47.302Z,30.01
2023-05-21T13:14:18.675Z,29.54
2023-05-21T13:16:50.475Z,29.40
2023-05-21T13:19:22.020Z,29.32
2023-05-21T13:21:53.517Z,29.36
2023-05-21T13:24:25.073Z,29.55
2023-05-21T13:26:56.608Z,29.58
2023-05-21T13:29:28.300Z,29.53
2023-05-21T13:32:00.049Z,29.55
2023-05-21T13:34:31.562Z,29.63
2023-05-21T13:37:03.142Z,29.81
2023-05-21T13:39:34.517Z,29.86
2023-05-21T13:42:06.401Z,30.07
2023-05-21T13:44:38.646Z,30.26
2023-05-21T13:47:10.676Z,30.60
2023-05-21T13:49:42.535Z,30.58
2023-05-21T13:52:14.229Z,30.93
2023-05-21T13:54:45.827Z,31.25
2023-05-21T13:57:17.249Z,31.48
2023-05-21T13:59:50.556Z,31.67
2023-05-21T14:02:22.216Z,31.58
2023-05-21T14:04:54.018Z,31.02
2023-05-21T14:07:25.773Z,30.49
2023-05-21T14:09:57.420Z,30.30
2023-05-21T14:12:29.119Z,30.06
2023-05-21T14:15:00.977Z,29.60
2023-05-21T14:17:32.597Z,29.49
2023-05-21T14:20:04.139Z,29.42
2023-05-21T14:22:35.825Z,29.51
2023-05-21T14:25:07.578Z,29.25
2023-05-21T14:27:39.279Z,29.29
2023-05-21T14:30:11.163Z,29.42
2023-05-21T14:32:42.866Z,29.42
2023-05-21T14:35:14.473Z,29.37
2023-05-21T14:37:46.014Z,29.68
2023-05-21T14:40:17.630Z,30.14
2023-05-21T14:42:48.978Z,30.62
2023-05-21T14:45:20.647Z,30.60
2023-05-21T14:47:52.193Z,30.64
2023-05-21T14:50:23.666Z,30.72
2023-05-21T14:52:55.297Z,30.93
2023-05-21T14:55:26.919Z,31.21
2023-05-21T14:57:58.720Z,31.50
2023-05-21T15:00:34.231Z,31.51
2023-05-21T15:03:06.208Z,31.32
2023-05-21T15:05:38.269Z,31.29
2023-05-21T15:08:10.064Z,31.47
2023-05-21T15:10:41.669Z,32.11
2023-05-21T15:13:13.382Z,32.45
2023-05-21T15:15:44.995Z,33.94
2023-05-21T15:18:16.659Z,35.79
2023-05-21T15:20:48.209Z,36.53
2023-05-21T15:23:19.780Z,37.52
2023-05-21T15:25:52.563Z,37.16
2023-05-21T15:28:24.135Z,37.49
2023-05-21T15:30:55.880Z,37.14
2023-05-21T15:33:27.422Z,36.72
2023-05-21T15:35:58.954Z,36.20
2023-05-21T15:38:30.609Z,36.02
2023-05-21T15:41:02.200Z,35.09
2023-05-21T15:43:34.069Z,34.58
2023-05-21T15:46:05.903Z,33.95
2023-05-21T15:48:38.017Z,33.84
2023-05-21T15:51:09.665Z,33.40
2023-05-21T15:53:41.205Z,33.15
2023-05-21T15:56:12.751Z,33.25
2023-05-21T15:58:44.356Z,33.20
2023-05-21T16:01:16.136Z,32.66
2023-05-21T16:03:47.819Z,32.07
2023-05-21T16:06:19.952Z,31.56
2023-05-21T16:08:51.497Z,31.59
2023-05-21T16:11:23.080Z,31.36
2023-05-21T16:13:54.745Z,30.79
2023-05-21T16:16:26.420Z,30.42
2023-05-21T16:18:58.031Z,30.33
2023-05-21T16:21:29.576Z,30.07
2023-05-21T16:24:01.494Z,29.73
2023-05-21T16:26:33.071Z,29.50
2023-05-21T16:29:04.665Z,29.34
2023-05-21T16:31:37.782Z,29.11
2023-05-21T16:34:09.378Z,28.88
2023-05-21T16:36:40.723Z,28.51
2023-05-21T16:39:12.360Z,28.46
2023-05-21T16:41:43.931Z,28.34
2023-05-21T16:44:15.310Z,28.10
2023-05-21T16:46:46.905Z,27.98
2023-05-21T16:49:19.262Z,27.85
2023-05-21T16:51:50.917Z,27.76
2023-05-21T16:54:22.343Z,27.53
2023-05-21T16:56:54.896Z,27.29
2023-05-21T16:59:26.499Z,27.21
2023-05-21T17:01:58.014Z,27.08
2023-05-21T17:04:29.703Z,27.00
2023-05-21T17:07:01.456Z,26.90
2023-05-21T17:09:33.020Z,26.76
2023-05-21T17:12:04.736Z,26.69
2023-05-21T17:14:38.308Z,26.47
2023-05-21T17:17:11.126Z,26.35
2023-05-21T17:19:44.557Z,26.16
2023-05-21T17:22:16.334Z,26.08
2023-05-21T17:24:48.281Z,26.00
2023-05-21T17:27:19.921Z,25.86
2023-05-21T17:29:51.468Z,25.70
2023-05-21T17:32:23.019Z,25.62
2023-05-21T17:34:54.538Z,25.39
2023-05-21T17:37:26.116Z,25.35
2023-05-21T17:39:57.777Z,25.28
2023-05-21T17:42:29.164Z,25.14
2023-05-21T17:45:01.115Z,25.09
2023-05-21T17:47:34.539Z,24.93
2023-05-21T17:50:07.027Z,24.88
2023-05-21T17:52:38.528Z,24.80
2023-05-21T17:55:10.828Z,24.70
2023-05-21T17:57:42.455Z,24.63
2023-05-21T18:00:14.288Z,24.51
2023-05-21T18:02:45.660Z,24.41
2023-05-21T18:05:17.390Z,24.31
2023-05-21T18:07:48.966Z,24.20
2023-05-21T18:10:20.724Z,24.03
2023-05-21T18:12:52.284Z,23.94
2023-05-21T18:15:23.821Z,23.82
2023-05-21T18:17:55.975Z,23.68
2023-05-21T18:20:27.660Z,23.63
2023-05-21T18:22:59.251Z,23.52
2023-05-21T18:25:30.769Z,23.44
2023-05-21T18:28:02.340Z,23.38
2023-05-21T18:30:34.410Z,23.28
2023-05-21T18:33:08.238Z,23.14
2023-05-21T18:35:40.845Z,23.05
2023-05-21T18:38:13.145Z,22.95
2023-05-21T18:40:44.767Z,22.83
2023-05-21T18:43:17.786Z,22.72
2023-05-21T18:45:49.344Z,22.61
2023-05-21T18:48:21.006Z,22.49
2023-05-21T18:50:52.864Z,22.40
2023-05-21T18:53:24.272Z,22.30
2023-05-21T18:55:55.872Z,22.22
2023-05-21T18:58:29.277Z,22.11
2023-05-21T19:01:00.970Z,22.03
2023-05-21T19:03:32.591Z,21.91
2023-05-21T19:06:04.284Z,21.82
2023-05-21T19:08:35.882Z,21.74
2023-05-21T19:11:07.992Z,21.67
2023-05-21T19:13:39.521Z,21.62
2023-05-21T19:16:11.453Z,21.55
2023-05-21T19:18:43.773Z,21.49
2023-05-21T19:21:15.558Z,21.42
2023-05-21T19:23:53.269Z,21.35
2023-05-21T19:26:25.594Z,21.31
2023-05-21T19:28:57.187Z,21.28
2023-05-21T19:31:28.743Z,21.20
2023-05-21T19:34:00.330Z,21.13
2023-05-21T19:36:44.434Z,21.07
2023-05-21T19:39:23.434Z,21.00
2023-05-21T19:41:55.015Z,20.97
2023-05-21T19:44:26.562Z,20.91
2023-05-21T19:46:59.066Z,20.87
2023-05-21T19:49:30.672Z,20.83
2023-05-21T19:52:02.510Z,20.79
2023-05-21T19:54:33.902Z,20.75
2023-05-21T19:57:05.931Z,20.69
2023-05-21T19:59:37.396Z,20.65
2023-05-21T20:02:12.602Z,20.64
2023-05-21T20:04:44.300Z,20.58
2023-05-21T20:07:16.192Z,20.54
2023-05-21T20:09:47.805Z,20.48
2023-05-21T20:12:19.564Z,20.41
2023-05-21T20:14:51.134Z,20.36
2023-05-21T20:17:24.422Z,20.32
2023-05-21T20:19:57.358Z,20.25
2023-05-21T20:22:28.920Z,20.20
2023-05-21T20:25:01.737Z,20.18
2023-05-21T20:27:35.099Z,20.15
2023-05-21T20:30:08.415Z,20.08
2023-05-21T20:32:39.955Z,20.03
2023-05-21T20:35:11.834Z,19.98
2023-05-21T20:37:43.388Z,19.95
2023-05-21T20:40:15.143Z,19.89
2023-05-21T20:42:48.287Z,19.84
2023-05-21T20:45:21.017Z,19.80
2023-05-21T20:47:53.338Z,19.76
2023-05-21T20:50:26.061Z,19.69
2023-05-21T20:52:58.091Z,19.62
2023-05-21T20:55:34.704Z,19.55
2023-05-21T20:58:06.497Z,19.51
2023-05-21T21:00:43.966Z,19.45
2023-05-21T21:03:17.807Z,19.38
2023-05-21T21:05:49.528Z,19.33
2023-05-21T21:08:21.128Z,19.25
2023-05-21T21:10:52.678Z,19.18
2023-05-21T21:13:24.291Z,19.11
2023-05-21T21:15:55.867Z,19.04
2023-05-21T21:18:27.418Z,19.01
2023-05-21T21:20:59.205Z,18.95
2023-05-21T21:23:30.830Z,18.92
2023-05-21T21:26:02.390Z,18.87
2023-05-21T21:28:34.026Z,18.78
2023-05-21T21:31:05.819Z,18.74
2023-05-21T21:33:37.433Z,18.73
2023-05-21T21:36:12.447Z,18.69
2023-05-21T21:38:44.044Z,18.63
2023-05-21T21:41:15.681Z,18.59
2023-05-21T21:43:47.399Z,18.55
2023-05-21T21:46:19.020Z,18.48
2023-05-21T21:48:50.661Z,18.36
2023-05-21T21:51:23.559Z,18.31
2023-05-21T21:53:55.407Z,18.28
2023-05-21T21:56:27.187Z,18.23
2023-05-21T21:58:58.768Z,18.16
2023-05-21T22:01:30.576Z,18.15
2023-05-21T22:04:02.392Z,18.13
2023-05-21T22:06:33.979Z,18.11
2023-05-21T22:09:06.905Z,18.06
2023-05-21T22:11:38.709Z,18.01
2023-05-21T22:14:11.660Z,17.95
2023-05-21T22:16:43.314Z,17.93
2023-05-21T22:19:18.016Z,17.91
2023-05-21T22:21:50.178Z,17.86
2023-05-21T22:24:32.013Z,17.83
2023-05-21T22:27:05.270Z,17.83
2023-05-21T22:29:36.819Z,17.74
2023-05-21T22:32:08.385Z,17.70
2023-05-21T22:34:39.977Z,17.66
2023-05-21T22:37:12.377Z,17.59
2023-05-21T22:39:43.998Z,17.56
2023-05-21T22:42:15.935Z,17.50
2023-05-21T22:44:47.520Z,17.43
2023-05-21T22:47:22.898Z,17.39
2023-05-21T22:49:54.453Z,17.35
2023-05-21T22:52:27.363Z,17.28
2023-05-21T22:55:00.713Z,17.26
2023-05-21T22:57:32.326Z,17.17
2023-05-21T23:00:06.869Z,17.03
2023-05-21T23:02:38.530Z,16.92
2023-05-21T23:05:10.318Z,16.83
2023-05-21T23:07:42.579Z,16.81
2023-05-21T23:10:14.780Z,16.84
2023-05-21T23:12:46.416Z,16.82
2023-05-21T23:15:18.914Z,16.80
2023-05-21T23:17:51.016Z,16.74
2023-05-21T23:20:22.766Z,16.74
2023-05-21T23:22:54.313Z,16.64
2023-05-21T23:25:26.036Z,16.63
2023-05-21T23:27:57.555Z,16.56
2023-05-21T23:30:29.229Z,16.47
2023-05-21T23:33:01.160Z,16.35
2023-05-21T23:35:32.860Z,16.34
2023-05-21T23:38:04.360Z,16.37
2023-05-21T23:40:36.316Z,16.39
2023-05-21T23:43:07.924Z,16.35
2023-05-21T23:45:41.174Z,16.34
2023-05-21T23:48:12.941Z,16.30
2023-05-21T23:50:44.519Z,16.30
2023-05-21T23:53:16.104Z,16.27
2023-05-21T23:55:47.616Z,16.26
2023-05-21T23:58:19.212Z,16.18
